Time;durP1;ratioP1;P1;durP2;ratioP2;P2;SDS_P1;SDS_P2;PMS_P1;PMS_P2;Temp;Humidity;BMP_temperature;BMP_pressure;BME280_temperature;BME280_humidity;BME280_pressure;Samples;Min_cycle;Max_cycle;Signal;HPM_P1;HPM_P2
2021/06/20 00:02:20;;;;;;;75.65;37.88;;;;;;;;;;4955888;29;20055;-61
2021/06/20 00:05:06;;;;;;;71.90;34.45;;;;;;;;;;4973129;28;21705;-61
2021/06/20 00:07:51;;;;;;;69.55;34.15;;;;;;;;;;4974988;28;20054;-61
2021/06/20 00:10:38;;;;;;;95.35;38.10;;;;;;;;;;4974538;28;20565;-62
2021/06/20 00:13:23;;;;;;;66.15;30.27;;;;;;;;;;4973726;28;20047;-62
2021/06/20 00:16:08;;;;;;;57.58;29.08;;;;;;;;;;4955921;29;20054;-62
2021/06/20 00:18:54;;;;;;;60.58;29.92;;;;;;;;;;4956975;29;20517;-61
2021/06/20 00:21:39;;;;;;;76.15;35.33;;;;;;;;;;4956025;29;20178;-62
2021/06/20 00:24:24;;;;;;;96.90;38.40;;;;;;;;;;4961428;28;20049;-61
2021/06/20 00:27:10;;;;;;;111.82;43.33;;;;;;;;;;4974543;28;20054;-61
2021/06/20 00:29:55;;;;;;;80.07;38.83;;;;;;;;;;4973301;28;20047;-61
2021/06/20 00:32:40;;;;;;;73.72;33.25;;;;;;;;;;4974547;28;20065;-62
2021/06/20 00:35:26;;;;;;;57.08;28.23;;;;;;;;;;4972638;28;20189;-61
2021/06/20 00:38:12;;;;;;;67.55;32.67;;;;;;;;;;4974281;28;20050;-61
2021/06/20 00:40:57;;;;;;;68.80;33.10;;;;;;;;;;4974126;28;20053;-61
2021/06/20 00:43:42;;;;;;;59.40;28.90;;;;;;;;;;4973157;28;20066;-61
2021/06/20 00:46:28;;;;;;;55.95;30.05;;;;;;;;;;4974039;28;20053;-61
2021/06/20 00:49:14;;;;;;;53.30;28.67;;;;;;;;;;4974361;28;20058;-61
2021/06/20 00:51:59;;;;;;;58.95;32.25;;;;;;;;;;4974188;28;20158;-61
2021/06/20 00:54:47;;;;;;;60.75;27.77;;;;;;;;;;4972094;28;20050;-61
2021/06/20 00:57:33;;;;;;;46.90;24.70;;;;;;;;;;4958547;28;20417;-61
2021/06/20 01:00:19;;;;;;;56.00;28.27;;;;;;;;;;4973674;28;20043;-61
2021/06/20 01:03:04;;;;;;;49.72;25.35;;;;;;;;;;4973808;28;20125;-61
2021/06/20 01:05:49;;;;;;;47.65;25.08;;;;;;;;;;4974013;28;20057;-61
2021/06/20 01:08:35;;;;;;;48.85;26.52;;;;;;;;;;4973787;28;20093;-62
2021/06/20 01:11:21;;;;;;;45.65;24.23;;;;;;;;;;4973457;28;20043;-61
2021/06/20 01:14:06;;;;;;;51.33;26.30;;;;;;;;;;4973280;28;20046;-61
2021/06/20 01:16:52;;;;;;;50.65;26.42;;;;;;;;;;4973895;28;20121;-62
2021/06/20 01:19:38;;;;;;;51.38;26.17;;;;;;;;;;4973592;28;20053;-61
2021/06/20 01:22:24;;;;;;;57.65;26.17;;;;;;;;;;4973858;28;20049;-61
2021/06/20 01:25:11;;;;;;;51.22;27.27;;;;;;;;;;4972728;28;20046;-61
2021/06/20 01:28:03;;;;;;;45.50;25.52;;;;;;;;;;4974101;28;20082;-62
2021/06/20 01:30:55;;;;;;;47.03;26.23;;;;;;;;;;4973625;28;20131;-61
2021/06/20 01:33:40;;;;;;;43.67;26.13;;;;;;;;;;4973867;28;20054;-61
2021/06/20 01:36:25;;;;;;;41.75;24.63;;;;;;;;;;4972743;28;20135;-61
2021/06/20 01:39:12;;;;;;;54.03;28.65;;;;;;;;;;4973535;28;20046;-62
2021/06/20 01:41:57;;;;;;;49.63;27.17;;;;;;;;;;4973376;28;20057;-62
2021/06/20 01:44:45;;;;;;;54.70;30.75;;;;;;;;;;4973022;28;20054;-61
2021/06/20 01:47:30;;;;;;;51.42;29.20;;;;;;;;;;4954182;29;20046;-61
2021/06/20 01:50:16;;;;;;;66.50;33.70;;;;;;;;;;4968875;28;20129;-61
2021/06/20 01:53:05;;;;;;;56.78;29.27;;;;;;;;;;4973370;28;20057;-61
2021/06/20 01:55:50;;;;;;;61.13;31.80;;;;;;;;;;4972302;28;20041;-61
2021/06/20 01:58:35;;;;;;;59.00;31.85;;;;;;;;;;4973206;28;20520;-61
2021/06/20 02:01:21;;;;;;;59.22;33.13;;;;;;;;;;4972810;28;20133;-61
2021/06/20 02:04:06;;;;;;;63.72;32.38;;;;;;;;;;4973286;28;20055;-61
2021/06/20 02:06:51;;;;;;;51.42;29.45;;;;;;;;;;4972204;28;20124;-61
2021/06/20 02:09:37;;;;;;;47.65;29.30;;;;;;;;;;4972752;28;20077;-61
2021/06/20 02:12:23;;;;;;;56.92;31.10;;;;;;;;;;4973169;28;20057;-61
2021/06/20 02:15:09;;;;;;;60.25;32.10;;;;;;;;;;4973090;28;20050;-62
2021/06/20 02:17:54;;;;;;;55.67;31.75;;;;;;;;;;4971871;28;20054;-62
2021/06/20 02:20:40;;;;;;;65.90;36.35;;;;;;;;;;4972894;28;20121;-62
2021/06/20 02:23:25;;;;;;;67.03;36.67;;;;;;;;;;4972917;28;20596;-61
2021/06/20 02:26:11;;;;;;;61.50;35.88;;;;;;;;;;4971893;28;20097;-61
2021/06/20 02:28:56;;;;;;;72.93;39.33;;;;;;;;;;4973070;28;20050;-61
2021/06/20 02:31:41;;;;;;;65.47;34.50;;;;;;;;;;4972669;28;20046;-61
2021/06/20 02:34:27;;;;;;;53.58;31.15;;;;;;;;;;4973354;28;20064;-61
2021/06/20 02:37:12;;;;;;;65.68;35.38;;;;;;;;;;4972059;28;20174;-61
2021/06/20 02:39:58;;;;;;;65.68;37.53;;;;;;;;;;4972672;28;20065;-61
2021/06/20 02:42:43;;;;;;;64.15;35.40;;;;;;;;;;4972969;28;20051;-61
2021/06/20 02:45:29;;;;;;;67.50;38.20;;;;;;;;;;4972857;28;20065;-61
2021/06/20 02:48:14;;;;;;;69.20;37.67;;;;;;;;;;4971862;28;20054;-61
2021/06/20 02:50:59;;;;;;;66.72;37.83;;;;;;;;;;4972426;28;20070;-61
2021/06/20 02:53:45;;;;;;;73.05;38.47;;;;;;;;;;4972783;28;20043;-61
2021/06/20 02:56:30;;;;;;;64.45;38.75;;;;;;;;;;4973182;28;20126;-61
2021/06/20 02:59:16;;;;;;;78.68;42.53;;;;;;;;;;4972490;28;20174;-61
2021/06/20 03:02:01;;;;;;;82.15;42.72;;;;;;;;;;4971895;28;20053;-61
2021/06/20 03:04:46;;;;;;;79.18;41.70;;;;;;;;;;4960126;28;20500;-61
2021/06/20 03:07:32;;;;;;;63.83;37.40;;;;;;;;;;4976063;28;20054;-61
2021/06/20 03:10:17;;;;;;;76.20;39.60;;;;;;;;;;4975726;28;20062;-61
2021/06/20 03:13:06;;;;;;;68.22;38.88;;;;;;;;;;4975366;28;20133;-61
2021/06/20 03:15:51;;;;;;;74.10;40.03;;;;;;;;;;4975002;28;20575;-61
2021/06/20 03:18:36;;;;;;;66.63;38.35;;;;;;;;;;4961460;28;20089;-61
2021/06/20 03:21:22;;;;;;;76.05;38.55;;;;;;;;;;4976295;28;20102;-60
2021/06/20 03:24:07;;;;;;;80.25;43.75;;;;;;;;;;4976485;28;20122;-62
2021/06/20 03:26:53;;;;;;;86.80;45.20;;;;;;;;;;4976018;28;20050;-62
2021/06/20 03:29:38;;;;;;;90.68;47.60;;;;;;;;;;4974721;28;20067;-62
2021/06/20 03:32:23;;;;;;;93.60;48.10;;;;;;;;;;4975700;28;20506;-61
2021/06/20 03:35:09;;;;;;;91.25;46.83;;;;;;;;;;4975475;28;20154;-62
2021/06/20 03:37:54;;;;;;;94.68;47.90;;;;;;;;;;4975630;28;20054;-61
2021/06/20 03:40:40;;;;;;;100.47;49.88;;;;;;;;;;4973417;28;20445;-61
2021/06/20 03:43:25;;;;;;;98.03;49.75;;;;;;;;;;4973744;28;20453;-61
2021/06/20 03:46:11;;;;;;;104.28;52.08;;;;;;;;;;4960876;28;20058;-61
2021/06/20 03:48:56;;;;;;;100.57;51.15;;;;;;;;;;4975326;28;20050;-61
2021/06/20 03:51:41;;;;;;;95.88;50.63;;;;;;;;;;4974558;28;20057;-62
2021/06/20 03:54:26;;;;;;;95.05;49.97;;;;;;;;;;4975412;28;20058;-61
2021/06/20 03:57:12;;;;;;;98.15;52.85;;;;;;;;;;4974999;28;20449;-61
2021/06/20 03:59:57;;;;;;;101.47;51.78;;;;;;;;;;4973625;28;20166;-61
2021/06/20 04:02:42;;;;;;;101.70;52.17;;;;;;;;;;4975167;28;20061;-61
2021/06/20 04:05:28;;;;;;;103.32;53.33;;;;;;;;;;4974882;28;20050;-61
2021/06/20 04:08:13;;;;;;;99.32;52.22;;;;;;;;;;4974447;28;20061;-61
2021/06/20 04:10:59;;;;;;;94.82;52.88;;;;;;;;;;4955391;29;20058;-61
2021/06/20 04:13:44;;;;;;;97.35;51.17;;;;;;;;;;4962944;28;20050;-61
2021/06/20 04:16:29;;;;;;;98.15;51.42;;;;;;;;;;4974693;28;20154;-61
2021/06/20 04:19:15;;;;;;;94.75;51.67;;;;;;;;;;4973896;28;20039;-61
2021/06/20 04:22:00;;;;;;;89.93;49.70;;;;;;;;;;4974768;28;20182;-61
2021/06/20 04:24:46;;;;;;;98.07;52.20;;;;;;;;;;4974603;28;20061;-61
2021/06/20 04:27:31;;;;;;;95.70;52.17;;;;;;;;;;4974776;28;20137;-62
2021/06/20 04:30:17;;;;;;;92.63;51.05;;;;;;;;;;4973348;28;20490;-61
2021/06/20 04:33:03;;;;;;;100.07;51.88;;;;;;;;;;4974586;28;20046;-62
2021/06/20 04:35:49;;;;;;;105.75;53.63;;;;;;;;;;4974550;28;20047;-61
2021/06/20 04:38:34;;;;;;;98.45;53.00;;;;;;;;;;4974475;28;20112;-61
2021/06/20 04:41:22;;;;;;;95.15;53.03;;;;;;;;;;4973032;28;20051;-61
2021/06/20 04:47:12;;;;;;;102.72;53.25;;;;;;;;;;4974058;28;20522;-60
2021/06/20 04:49:57;;;;;;;99.25;54.53;;;;;;;;;;4972915;28;20070;-61
2021/06/20 04:52:43;;;;;;;102.15;54.90;;;;;;;;;;4973454;28;20047;-62
2021/06/20 04:55:28;;;;;;;97.50;55.38;;;;;;;;;;4973884;28;20042;-61
2021/06/20 04:58:13;;;;;;;94.80;53.67;;;;;;;;;;4959637;28;20173;-60
2021/06/20 05:00:58;;;;;;;94.85;54.55;;;;;;;;;;4973241;28;20129;-61
2021/06/20 05:03:44;;;;;;;95.50;54.08;;;;;;;;;;4959555;28;20078;-61
2021/06/20 05:06:29;;;;;;;103.30;57.00;;;;;;;;;;4973838;28;20066;-61
2021/06/20 05:09:14;;;;;;;97.78;55.63;;;;;;;;;;4973756;28;20522;-61
2021/06/20 05:12:00;;;;;;;105.65;58.22;;;;;;;;;;4972936;28;20129;-61
2021/06/20 05:14:46;;;;;;;100.53;57.70;;;;;;;;;;4973785;28;20437;-61
2021/06/20 05:17:31;;;;;;;94.32;54.95;;;;;;;;;;4973936;28;20063;-61
2021/06/20 05:20:16;;;;;;;91.35;54.88;;;;;;;;;;4973622;28;20144;-61
2021/06/20 05:23:02;;;;;;;82.32;55.13;;;;;;;;;;4973102;28;20053;-61
2021/06/20 05:25:47;;;;;;;83.90;55.22;;;;;;;;;;4969146;28;20070;-61
2021/06/20 05:28:33;;;;;;;76.20;53.67;;;;;;;;;;4964681;28;20540;-61
2021/06/20 05:31:18;;;;;;;74.50;52.17;;;;;;;;;;4965423;28;20159;-61
2021/06/20 05:34:04;;;;;;;80.82;49.78;;;;;;;;;;4963570;28;20091;-62
2021/06/20 05:36:49;;;;;;;68.03;49.42;;;;;;;;;;4969462;28;20204;-61
2021/06/20 05:39:35;;;;;;;65.15;46.83;;;;;;;;;;4972157;28;20053;-61
2021/06/20 05:42:21;;;;;;;64.25;47.45;;;;;;;;;;4972774;28;20065;-61
2021/06/20 05:45:06;;;;;;;56.50;42.38;;;;;;;;;;4973306;28;20058;-61
2021/06/20 05:47:51;;;;;;;46.40;38.20;;;;;;;;;;4973341;28;20136;-61
2021/06/20 05:50:37;;;;;;;44.30;38.35;;;;;;;;;;4972877;28;20425;-62
2021/06/20 05:53:22;;;;;;;43.75;37.88;;;;;;;;;;4972305;28;20081;-61
2021/06/20 05:56:08;;;;;;;49.03;38.35;;;;;;;;;;4973057;28;20047;-61
2021/06/20 05:58:53;;;;;;;42.08;36.65;;;;;;;;;;4958505;28;20054;-62
2021/06/20 06:01:38;;;;;;;41.13;34.05;;;;;;;;;;4973057;28;20051;-61
2021/06/20 06:04:24;;;;;;;36.13;32.05;;;;;;;;;;4989462;28;20054;-61
2021/06/20 06:07:10;;;;;;;34.50;30.13;;;;;;;;;;4976016;28;20058;-61
2021/06/20 06:09:55;;;;;;;35.35;31.40;;;;;;;;;;4971418;28;20519;-61
2021/06/20 06:12:40;;;;;;;36.97;31.23;;;;;;;;;;4971869;28;20521;-61
2021/06/20 06:15:26;;;;;;;35.45;30.98;;;;;;;;;;4972800;28;20535;-61
2021/06/20 06:18:11;;;;;;;44.72;33.75;;;;;;;;;;4958472;28;20043;-61
2021/06/20 06:20:56;;;;;;;37.22;31.27;;;;;;;;;;4972068;28;20102;-61
2021/06/20 06:23:41;;;;;;;33.85;28.92;;;;;;;;;;4970981;28;20493;-61
2021/06/20 06:26:27;;;;;;;32.25;27.88;;;;;;;;;;4972931;28;20405;-61
2021/06/20 06:29:12;;;;;;;32.72;27.25;;;;;;;;;;4970063;28;20043;-62
2021/06/20 06:31:58;;;;;;;24.25;20.55;;;;;;;;;;4959064;28;20137;-61
2021/06/20 06:34:43;;;;;;;26.83;24.02;;;;;;;;;;4972899;28;20039;-62
2021/06/20 06:37:28;;;;;;;25.67;20.80;;;;;;;;;;4973723;28;20051;-61
2021/06/20 06:40:14;;;;;;;23.77;21.30;;;;;;;;;;4975596;28;20066;-61
2021/06/20 06:43:00;;;;;;;24.15;20.48;;;;;;;;;;4975610;28;20046;-61
2021/06/20 06:45:45;;;;;;;20.52;18.42;;;;;;;;;;4976693;28;20051;-61
2021/06/20 06:48:30;;;;;;;25.85;19.55;;;;;;;;;;4976449;28;20504;-61
2021/06/20 06:51:16;;;;;;;15.75;14.15;;;;;;;;;;4960965;28;20070;-62
2021/06/20 06:54:01;;;;;;;16.17;14.27;;;;;;;;;;4969364;28;20054;-61
2021/06/20 06:56:46;;;;;;;17.95;14.32;;;;;;;;;;4956727;29;20058;-61
2021/06/20 06:59:32;;;;;;;16.27;13.88;;;;;;;;;;4957036;28;20055;-61
2021/06/20 07:02:17;;;;;;;13.75;12.35;;;;;;;;;;4959215;28;20062;-61
2021/06/20 07:05:03;;;;;;;13.93;12.02;;;;;;;;;;4956711;29;20437;-62
2021/06/20 07:07:48;;;;;;;13.70;10.63;;;;;;;;;;4966017;28;20055;-62
2021/06/20 07:10:34;;;;;;;12.30;11.00;;;;;;;;;;4976716;28;20555;-62
2021/06/20 07:13:19;;;;;;;11.25;9.63;;;;;;;;;;4977699;28;20074;-61
2021/06/20 07:16:05;;;;;;;8.30;7.28;;;;;;;;;;4977878;28;20166;-62
2021/06/20 07:18:50;;;;;;;9.88;8.30;;;;;;;;;;4976103;28;20066;-62
2021/06/20 07:21:35;;;;;;;8.77;7.88;;;;;;;;;;4976357;28;20524;-62
2021/06/20 07:24:21;;;;;;;9.25;8.30;;;;;;;;;;4978058;28;20508;-62
2021/06/20 07:27:06;;;;;;;13.88;9.63;;;;;;;;;;4978209;28;20543;-62
2021/06/20 07:29:52;;;;;;;8.55;7.35;;;;;;;;;;4976824;28;20054;-62
2021/06/20 07:32:37;;;;;;;10.95;9.82;;;;;;;;;;4974464;28;20049;-64
2021/06/20 07:35:22;;;;;;;11.57;9.70;;;;;;;;;;4976117;28;20046;-64
2021/06/20 07:38:08;;;;;;;10.95;9.20;;;;;;;;;;4975986;28;20109;-65
2021/06/20 07:40:53;;;;;;;8.25;7.53;;;;;;;;;;4955772;29;20058;-65
2021/06/20 07:43:39;;;;;;;10.30;8.20;;;;;;;;;;4958118;28;20055;-64
2021/06/20 07:46:24;;;;;;;7.72;7.03;;;;;;;;;;4975645;28;20069;-64
2021/06/20 07:49:10;;;;;;;7.80;6.97;;;;;;;;;;4966676;28;20521;-64
2021/06/20 07:51:55;;;;;;;6.05;5.28;;;;;;;;;;4955777;28;20061;-64
2021/06/20 07:54:49;;;;;;;5.57;4.70;;;;;;;;;;4955944;29;20053;-64
2021/06/20 07:57:34;;;;;;;6.63;4.78;;;;;;;;;;4936821;29;20058;-64
2021/06/20 08:00:20;;;;;;;5.25;4.40;;;;;;;;;;4939892;29;20534;-64
2021/06/20 08:03:05;;;;;;;5.22;4.50;;;;;;;;;;4953199;29;20776;-64
2021/06/20 08:05:50;;;;;;;5.07;4.05;;;;;;;;;;4936454;29;20059;-65
2021/06/20 08:08:36;;;;;;;3.80;3.28;;;;;;;;;;4936746;29;20047;-65
2021/06/20 08:11:21;;;;;;;3.85;3.42;;;;;;;;;;4942924;29;20134;-64
2021/06/20 08:14:07;;;;;;;4.47;3.10;;;;;;;;;;4955425;29;20405;-65
2021/06/20 08:16:52;;;;;;;3.65;2.20;;;;;;;;;;4955437;29;20541;-65
2021/06/20 08:19:38;;;;;;;2.65;2.28;;;;;;;;;;4955428;29;20118;-65
2021/06/20 08:22:24;;;;;;;3.38;2.30;;;;;;;;;;4954518;29;20141;-65
2021/06/20 08:25:10;;;;;;;2.45;1.98;;;;;;;;;;4949944;29;20046;-65
2021/06/20 08:27:55;;;;;;;3.28;2.50;;;;;;;;;;4945117;29;20050;-65
2021/06/20 08:30:40;;;;;;;2.88;2.42;;;;;;;;;;4946035;29;20517;-65
2021/06/20 08:33:26;;;;;;;3.08;2.60;;;;;;;;;;4946608;29;20631;-65
2021/06/20 08:36:11;;;;;;;3.17;1.95;;;;;;;;;;4939797;29;20499;-65
2021/06/20 08:38:56;;;;;;;3.15;1.50;;;;;;;;;;4936066;29;20498;-63
2021/06/20 08:41:43;;;;;;;3.08;1.80;;;;;;;;;;4937999;29;20129;-62
2021/06/20 08:44:32;;;;;;;4.13;1.83;;;;;;;;;;4955268;29;20051;-63
2021/06/20 08:47:17;;;;;;;2.78;1.55;;;;;;;;;;4953638;29;20070;-63
2021/06/20 08:50:03;;;;;;;3.35;1.45;;;;;;;;;;4940481;28;20122;-64
2021/06/20 08:52:49;;;;;;;1.38;1.00;;;;;;;;;;4959090;28;20446;-63
2021/06/20 08:55:34;;;;;;;3.50;1.00;;;;;;;;;;4952360;28;20051;-63
2021/06/20 08:58:23;;;;;;;3.03;1.02;;;;;;;;;;4970896;28;20054;-63
2021/06/20 09:01:09;;;;;;;2.33;1.17;;;;;;;;;;4992275;28;20046;-62
2021/06/20 09:03:54;;;;;;;2.30;0.70;;;;;;;;;;4973897;28;20053;-62
2021/06/20 09:06:40;;;;;;;2.90;1.02;;;;;;;;;;4989737;28;20504;-62
2021/06/20 09:09:29;;;;;;;2.50;0.68;;;;;;;;;;4954379;29;20166;-62
2021/06/20 09:12:14;;;;;;;3.80;1.10;;;;;;;;;;4954473;29;20143;-62
2021/06/20 09:15:00;;;;;;;1.92;0.70;;;;;;;;;;4954579;29;20055;-62
2021/06/20 09:17:49;;;;;;;4.32;0.93;;;;;;;;;;4941943;29;20065;-62
2021/06/20 09:20:37;;;;;;;1.33;0.60;;;;;;;;;;4954053;29;20584;-62
2021/06/20 09:23:22;;;;;;;1.60;0.65;;;;;;;;;;4958182;28;20061;-62
2021/06/20 09:26:07;;;;;;;2.47;0.68;;;;;;;;;;4973681;28;20060;-62
2021/06/20 09:28:53;;;;;;;2.15;0.68;;;;;;;;;;4955804;28;20046;-62
2021/06/20 09:32:04;;;;;;;3.40;0.80;;;;;;;;;;4954358;29;20062;-62
2021/06/20 09:34:51;;;;;;;2.45;0.80;;;;;;;;;;4967232;28;20049;-62
2021/06/20 09:37:36;;;;;;;3.92;1.02;;;;;;;;;;4963978;28;20148;-62
2021/06/20 09:40:23;;;;;;;2.67;0.75;;;;;;;;;;4953975;29;20553;-62
2021/06/20 09:43:12;;;;;;;2.40;0.60;;;;;;;;;;4954000;29;20055;-62
2021/06/20 09:45:58;;;;;;;2.00;0.50;;;;;;;;;;4969177;28;20042;-63
2021/06/20 09:48:45;;;;;;;1.10;0.60;;;;;;;;;;4973566;28;20675;-62
2021/06/20 09:51:30;;;;;;;1.45;0.50;;;;;;;;;;4973075;28;20182;-62
2021/06/20 09:54:15;;;;;;;2.75;0.22;;;;;;;;;;4971919;28;20058;-62
2021/06/20 09:57:01;;;;;;;0.55;0.32;;;;;;;;;;4956714;28;20116;-62
2021/06/20 09:59:56;;;;;;;1.23;0.40;;;;;;;;;;4964135;28;20050;-62
2021/06/20 10:02:42;;;;;;;1.10;0.20;;;;;;;;;;4963744;28;20070;-62
2021/06/20 10:05:27;;;;;;;1.90;0.50;;;;;;;;;;4962738;28;20126;-62
2021/06/20 10:08:12;;;;;;;0.30;0.20;;;;;;;;;;4969450;28;20053;-62
2021/06/20 10:10:58;;;;;;;1.23;0.40;;;;;;;;;;4960493;28;20589;-61
2021/06/20 10:13:44;;;;;;;0.28;0.20;;;;;;;;;;4956355;28;20043;-62
2021/06/20 10:16:34;;;;;;;1.38;0.20;;;;;;;;;;4972160;28;20058;-62
2021/06/20 10:19:19;;;;;;;0.65;0.20;;;;;;;;;;4962308;28;20058;-62
2021/06/20 10:22:06;;;;;;;0.70;0.30;;;;;;;;;;4976043;28;20054;-62
2021/06/20 10:24:53;;;;;;;0.60;0.40;;;;;;;;;;4976268;28;20053;-62
2021/06/20 10:27:41;;;;;;;0.45;0.20;;;;;;;;;;4962186;28;20093;-64
2021/06/20 10:30:28;;;;;;;0.73;0.25;;;;;;;;;;4972916;28;20066;-64
2021/06/20 10:33:14;;;;;;;0.50;0.35;;;;;;;;;;4943222;29;20120;-65
2021/06/20 10:35:59;;;;;;;1.60;0.20;;;;;;;;;;4961488;28;20173;-63
2021/06/20 10:38:46;;;;;;;0.52;0.10;;;;;;;;;;4977335;28;20050;-64
2021/06/20 10:41:31;;;;;;;1.88;0.52;;;;;;;;;;4976976;28;20049;-64
2021/06/20 10:44:17;;;;;;;0.68;0.15;;;;;;;;;;4973108;28;20107;-64
2021/06/20 10:47:02;;;;;;;1.67;0.30;;;;;;;;;;4957518;29;20054;-62
2021/06/20 10:49:55;;;;;;;0.35;0.17;;;;;;;;;;4959626;28;20078;-62
2021/06/20 10:52:41;;;;;;;1.13;0.30;;;;;;;;;;4957004;29;20062;-62
2021/06/20 10:55:26;;;;;;;2.13;0.10;;;;;;;;;;4969154;28;20050;-62
2021/06/20 10:58:17;;;;;;;0.70;0.17;;;;;;;;;;4976368;28;20051;-62
2021/06/20 11:01:07;;;;;;;4.70;0.10;;;;;;;;;;4976212;28;20043;-62
2021/06/20 11:03:52;;;;;;;0.70;0.20;;;;;;;;;;4974101;28;20066;-62
2021/06/20 11:06:37;;;;;;;1.15;0.30;;;;;;;;;;4968013;28;20067;-62
2021/06/20 11:09:22;;;;;;;1.17;0.20;;;;;;;;;;4983072;28;20121;-62
2021/06/20 11:12:14;;;;;;;1.35;0.15;;;;;;;;;;4961091;28;20054;-61
2021/06/20 11:15:00;;;;;;;0.77;0.15;;;;;;;;;;4975861;28;20057;-62
2021/06/20 11:17:45;;;;;;;0.43;0.20;;;;;;;;;;4975900;28;20459;-62
2021/06/20 11:20:30;;;;;;;0.52;0.15;;;;;;;;;;4975785;28;20057;-62
2021/06/20 11:23:16;;;;;;;0.55;0.10;;;;;;;;;;4975763;28;20533;-62
2021/06/20 11:26:02;;;;;;;0.43;0.15;;;;;;;;;;4974308;28;20046;-61
2021/06/20 11:28:51;;;;;;;1.48;0.10;;;;;;;;;;4975079;28;20054;-62
2021/06/20 11:31:46;;;;;;;0.93;0.10;;;;;;;;;;4961611;28;20058;-62
2021/06/20 11:34:31;;;;;;;1.77;0.40;;;;;;;;;;4965691;28;20095;-62
2021/06/20 11:37:20;;;;;;;0.88;0.20;;;;;;;;;;4945071;28;20057;-62
2021/06/20 11:40:08;;;;;;;2.50;0.40;;;;;;;;;;4975261;28;20425;-62
2021/06/20 11:42:54;;;;;;;1.52;0.30;;;;;;;;;;4975481;28;20057;-62
2021/06/20 11:45:40;;;;;;;2.05;0.20;;;;;;;;;;4967577;28;20058;-62
2021/06/20 11:48:25;;;;;;;0.68;0.20;;;;;;;;;;4966003;28;20058;-62
2021/06/20 11:51:10;;;;;;;2.97;0.20;;;;;;;;;;4974751;28;20075;-63
2021/06/20 11:54:31;;;;;;;0.63;0.20;;;;;;;;;;4968311;28;20425;-62
2021/06/20 11:57:26;;;;;;;1.45;0.43;;;;;;;;;;4913424;29;20167;-62
2021/06/20 12:00:14;;;;;;;1.63;0.35;;;;;;;;;;4972911;28;20489;-62
2021/06/20 12:03:02;;;;;;;2.15;0.60;;;;;;;;;;4972722;28;20058;-61
2021/06/20 12:05:51;;;;;;;1.10;0.38;;;;;;;;;;4941727;29;20052;-62
2021/06/20 12:08:37;;;;;;;1.08;0.50;;;;;;;;;;4943051;29;20051;-62
2021/06/20 12:11:31;;;;;;;1.10;0.40;;;;;;;;;;4949459;29;20050;-62
2021/06/20 12:14:23;;;;;;;0.80;0.35;;;;;;;;;;4945899;28;20047;-62
2021/06/20 12:17:08;;;;;;;1.48;0.45;;;;;;;;;;4955388;29;20066;-62
2021/06/20 12:19:54;;;;;;;2.53;0.45;;;;;;;;;;4953372;29;20410;-62
2021/06/20 12:22:46;;;;;;;1.45;0.60;;;;;;;;;;4955007;29;20050;-62
2021/06/20 12:25:31;;;;;;;;;;;;;;;;;;4955379;29;20066;-62
2021/06/20 12:28:17;;;;;;;1.17;0.57;;;;;;;;;;4954653;29;19926;-62
2021/06/20 12:31:02;;;;;;;0.73;0.40;;;;;;;;;;4953473;29;20535;-62
2021/06/20 12:33:47;;;;;;;1.52;0.52;;;;;;;;;;4957582;28;20054;-62
2021/06/20 12:36:32;;;;;;;1.42;0.55;;;;;;;;;;4952225;28;20050;-62
2021/06/20 12:39:18;;;;;;;0.98;0.43;;;;;;;;;;4963145;28;20070;-62
2021/06/20 12:42:03;;;;;;;0.88;0.40;;;;;;;;;;4963486;28;20059;-62
2021/06/20 12:44:55;;;;;;;1.33;0.57;;;;;;;;;;4962835;28;20062;-62
2021/06/20 12:47:40;;;;;;;2.40;0.90;;;;;;;;;;4947380;28;20529;-62
2021/06/20 12:50:30;;;;;;;2.38;0.80;;;;;;;;;;4967869;28;20450;-63
2021/06/20 12:53:15;;;;;;;2.10;0.73;;;;;;;;;;4964818;28;20082;-63
2021/06/20 12:56:01;;;;;;;3.20;0.90;;;;;;;;;;4952185;28;20077;-63
2021/06/20 12:58:56;;;;;;;3.90;1.20;;;;;;;;;;4983289;28;20607;-63
2021/06/20 13:01:52;;;;;;;2.85;1.02;;;;;;;;;;4974982;28;20049;-63
2021/06/20 13:04:47;;;;;;;3.97;0.82;;;;;;;;;;4976650;28;20105;-63
2021/06/20 13:07:32;;;;;;;2.50;1.20;;;;;;;;;;4982384;28;20423;-63
2021/06/20 13:10:17;;;;;;;2.42;1.40;;;;;;;;;;4977368;28;20063;-63
2021/06/20 13:13:03;;;;;;;3.88;1.40;;;;;;;;;;4978935;28;20046;-63
2021/06/20 13:15:48;;;;;;;2.85;1.00;;;;;;;;;;4979013;28;20177;-63
2021/06/20 13:18:33;;;;;;;6.13;1.20;;;;;;;;;;4973368;28;20050;-63
2021/06/20 13:21:18;;;;;;;3.17;1.52;;;;;;;;;;4969964;28;20046;-62
2021/06/20 13:24:04;;;;;;;3.25;1.17;;;;;;;;;;4971280;28;20416;-63
2021/06/20 13:26:49;;;;;;;3.00;1.27;;;;;;;;;;4970607;28;20054;-63
2021/06/20 13:29:34;;;;;;;3.00;1.60;;;;;;;;;;4969422;28;20069;-63
2021/06/20 13:32:20;;;;;;;2.00;1.40;;;;;;;;;;4954629;28;20262;-63
2021/06/20 13:35:06;;;;;;;5.68;2.28;;;;;;;;;;4957578;28;20102;-63
2021/06/20 13:37:51;;;;;;;2.63;1.45;;;;;;;;;;4952236;28;20520;-63
2021/06/20 13:40:37;;;;;;;3.90;1.63;;;;;;;;;;4962943;28;20182;-63
2021/06/20 13:43:22;;;;;;;4.40;1.77;;;;;;;;;;4954962;28;20506;-63
2021/06/20 13:46:07;;;;;;;3.70;1.90;;;;;;;;;;4952173;29;20417;-63
2021/06/20 13:48:52;;;;;;;2.20;1.83;;;;;;;;;;4989350;28;20050;-63
2021/06/20 13:51:38;;;;;;;2.53;1.17;;;;;;;;;;4967396;28;20051;-63
2021/06/20 13:54:23;;;;;;;2.42;1.90;;;;;;;;;;4951337;28;20516;-63
2021/06/20 13:57:09;;;;;;;3.35;2.20;;;;;;;;;;4951867;28;20047;-63
2021/06/20 13:59:54;;;;;;;2.53;1.80;;;;;;;;;;4952187;28;20167;-63
2021/06/20 14:02:39;;;;;;;2.65;1.92;;;;;;;;;;4965154;28;20074;-63
2021/06/20 14:05:28;;;;;;;5.05;1.50;;;;;;;;;;4970127;28;20109;-63
2021/06/20 14:08:13;;;;;;;2.78;1.83;;;;;;;;;;4971090;28;20070;-63
2021/06/20 14:10:58;;;;;;;3.15;1.63;;;;;;;;;;4969564;28;20069;-63
2021/06/20 14:13:44;;;;;;;2.60;1.92;;;;;;;;;;4969714;28;20062;-62
2021/06/20 14:16:30;;;;;;;4.30;2.20;;;;;;;;;;4970564;28;20053;-63
2021/06/20 14:19:15;;;;;;;4.97;2.35;;;;;;;;;;4951577;28;20051;-63
2021/06/20 14:22:00;;;;;;;4.35;2.10;;;;;;;;;;4953417;28;20049;-63
2021/06/20 14:24:46;;;;;;;3.85;2.20;;;;;;;;;;4952248;28;20188;-63
2021/06/20 14:27:31;;;;;;;3.45;1.95;;;;;;;;;;4959469;28;20047;-63
2021/06/20 14:30:16;;;;;;;4.57;1.80;;;;;;;;;;4951052;29;20062;-63
2021/06/20 14:33:02;;;;;;;4.82;2.17;;;;;;;;;;4965362;28;20110;-63
2021/06/20 14:35:47;;;;;;;3.88;1.95;;;;;;;;;;4953432;28;20113;-63
2021/06/20 14:38:33;;;;;;;3.05;2.13;;;;;;;;;;4970240;28;20054;-63
2021/06/20 14:41:18;;;;;;;3.95;2.10;;;;;;;;;;4964265;28;20044;-63
2021/06/20 14:44:03;;;;;;;3.10;1.95;;;;;;;;;;4971035;28;20065;-62
2021/06/20 14:46:49;;;;;;;6.32;2.53;;;;;;;;;;4973046;28;20190;-62
2021/06/20 14:49:34;;;;;;;5.53;2.30;;;;;;;;;;4988718;28;20141;-62
2021/06/20 14:52:20;;;;;;;3.95;2.10;;;;;;;;;;4971645;28;20050;-63
2021/06/20 14:55:06;;;;;;;3.05;1.95;;;;;;;;;;4970624;28;20093;-63
2021/06/20 14:57:51;;;;;;;3.38;1.83;;;;;;;;;;4970809;28;20047;-63
2021/06/20 15:00:37;;;;;;;3.70;2.65;;;;;;;;;;4968541;28;20051;-62
2021/06/20 15:03:23;;;;;;;4.85;2.38;;;;;;;;;;4949410;28;20075;-63
2021/06/20 15:06:08;;;;;;;3.70;2.20;;;;;;;;;;4939808;29;20553;-63
2021/06/20 15:08:53;;;;;;;3.10;1.98;;;;;;;;;;4954353;28;20058;-63
2021/06/20 15:11:38;;;;;;;2.20;1.90;;;;;;;;;;4968440;28;20057;-63
2021/06/20 15:14:23;;;;;;;3.58;2.30;;;;;;;;;;4973035;28;20501;-63
2021/06/20 15:17:09;;;;;;;3.75;1.75;;;;;;;;;;4968511;28;20078;-62
2021/06/20 15:19:54;;;;;;;2.35;1.58;;;;;;;;;;4974471;28;20046;-63
2021/06/20 15:22:40;;;;;;;3.35;1.67;;;;;;;;;;4974586;28;20494;-63
2021/06/20 15:25:28;;;;;;;5.72;2.15;;;;;;;;;;4973267;28;20593;-63
2021/06/20 15:28:14;;;;;;;4.80;1.75;;;;;;;;;;4973075;28;20563;-62
2021/06/20 15:30:59;;;;;;;3.03;1.98;;;;;;;;;;4972628;28;20070;-63
2021/06/20 15:33:44;;;;;;;2.28;1.75;;;;;;;;;;4953591;28;20752;-63
2021/06/20 15:36:29;;;;;;;2.38;1.90;;;;;;;;;;4953805;29;20505;-62
2021/06/20 15:39:14;;;;;;;3.35;1.75;;;;;;;;;;4961508;28;20488;-63
2021/06/20 15:42:00;;;;;;;3.58;2.00;;;;;;;;;;4957535;28;20050;-62
2021/06/20 15:44:45;;;;;;;4.38;2.30;;;;;;;;;;4973486;28;20058;-62
2021/06/20 15:47:30;;;;;;;4.00;1.75;;;;;;;;;;4980462;28;20053;-62
2021/06/20 15:50:17;;;;;;;2.83;2.00;;;;;;;;;;4962646;28;20053;-62
2021/06/20 15:53:03;;;;;;;4.85;2.28;;;;;;;;;;4972917;28;20043;-62
2021/06/20 15:55:48;;;;;;;2.15;1.42;;;;;;;;;;4973221;28;20039;-62
2021/06/20 15:58:33;;;;;;;4.55;1.95;;;;;;;;;;4972045;28;20507;-63
2021/06/20 16:01:18;;;;;;;3.15;1.77;;;;;;;;;;4962220;28;20074;-62
2021/06/20 16:04:04;;;;;;;5.85;2.00;;;;;;;;;;4948735;28;20061;-62
2021/06/20 16:06:49;;;;;;;2.47;1.92;;;;;;;;;;4954054;29;20066;-62
2021/06/20 16:09:35;;;;;;;3.38;1.90;;;;;;;;;;4965059;28;20113;-62
2021/06/20 16:12:21;;;;;;;4.45;2.10;;;;;;;;;;4972194;28;20405;-62
2021/06/20 16:15:07;;;;;;;2.72;1.67;;;;;;;;;;4954109;28;20106;-62
2021/06/20 16:17:52;;;;;;;2.47;1.48;;;;;;;;;;4973675;28;20081;-62
2021/06/20 16:20:38;;;;;;;3.15;1.15;;;;;;;;;;4969308;28;20054;-62
2021/06/20 16:23:23;;;;;;;2.60;1.35;;;;;;;;;;4972132;28;20042;-62
2021/06/20 16:26:09;;;;;;;3.47;1.67;;;;;;;;;;4972293;28;20064;-62